sensor_id;sensor_type;location;lat;lon;timestamp;P1;durP1;ratioP1;P2;durP2;ratioP2
22441;SDS011;11388;54.456;9.752;2023-04-24T00:00:34;7.05;;;4.90;;
22441;SDS011;11388;54.456;9.752;2023-04-24T00:03:01;6.53;;;5.40;;
22441;SDS011;11388;54.456;9.752;2023-04-24T00:05:28;6.10;;;5.18;;
22441;SDS011;11388;54.456;9.752;2023-04-24T00:07:54;5.80;;;5.20;;
22441;SDS011;11388;54.456;9.752;2023-04-24T00:10:20;5.75;;;5.13;;
22441;SDS011;11388;54.456;9.752;2023-04-24T00:12:46;5.55;;;5.03;;
22441;SDS011;11388;54.456;9.752;2023-04-24T00:15:12;5.68;;;5.18;;
22441;SDS011;11388;54.456;9.752;2023-04-24T00:17:37;6.65;;;5.60;;
22441;SDS011;11388;54.456;9.752;2023-04-24T00:20:03;6.13;;;5.53;;
22441;SDS011;11388;54.456;9.752;2023-04-24T00:22:32;6.15;;;5.55;;
22441;SDS011;11388;54.456;9.752;2023-04-24T00:24:58;5.90;;;5.30;;
22441;SDS011;11388;54.456;9.752;2023-04-24T00:27:24;5.85;;;5.28;;
22441;SDS011;11388;54.456;9.752;2023-04-24T00:29:53;6.30;;;5.70;;
22441;SDS011;11388;54.456;9.752;2023-04-24T00:32:18;7.28;;;6.15;;
22441;SDS011;11388;54.456;9.752;2023-04-24T00:34:44;7.05;;;5.70;;
22441;SDS011;11388;54.456;9.752;2023-04-24T00:37:10;6.22;;;5.63;;
22441;SDS011;11388;54.456;9.752;2023-04-24T00:39:36;7.00;;;6.28;;
22441;SDS011;11388;54.456;9.752;2023-04-24T00:42:02;6.70;;;6.00;;
22441;SDS011;11388;54.456;9.752;2023-04-24T00:44:28;6.95;;;6.07;;
22441;SDS011;11388;54.456;9.752;2023-04-24T00:46:54;7.22;;;5.90;;
22441;SDS011;11388;54.456;9.752;2023-04-24T00:49:21;7.28;;;5.70;;
22441;SDS011;11388;54.456;9.752;2023-04-24T00:51:49;6.88;;;5.40;;
22441;SDS011;11388;54.456;9.752;2023-04-24T00:54:16;6.90;;;6.20;;
22441;SDS011;11388;54.456;9.752;2023-04-24T00:56:42;6.55;;;5.95;;
22441;SDS011;11388;54.456;9.752;2023-04-24T00:59:10;7.03;;;6.28;;
22441;SDS011;11388;54.456;9.752;2023-04-24T01:01:37;6.25;;;5.65;;
22441;SDS011;11388;54.456;9.752;2023-04-24T01:04:07;7.35;;;6.50;;
22441;SDS011;11388;54.456;9.752;2023-04-24T01:06:35;6.97;;;6.38;;
22441;SDS011;11388;54.456;9.752;2023-04-24T01:09:06;7.90;;;7.10;;
22441;SDS011;11388;54.456;9.752;2023-04-24T01:11:36;7.82;;;7.03;;
22441;SDS011;11388;54.456;9.752;2023-04-24T01:14:02;7.20;;;6.50;;
22441;SDS011;11388;54.456;9.752;2023-04-24T01:16:28;7.13;;;6.43;;
22441;SDS011;11388;54.456;9.752;2023-04-24T01:18:54;7.40;;;6.70;;
22441;SDS011;11388;54.456;9.752;2023-04-24T01:21:20;7.65;;;6.85;;
22441;SDS011;11388;54.456;9.752;2023-04-24T01:23:46;9.40;;;6.75;;
22441;SDS011;11388;54.456;9.752;2023-04-24T01:26:13;6.78;;;6.18;;
22441;SDS011;11388;54.456;9.752;2023-04-24T01:28:40;7.22;;;6.45;;
22441;SDS011;11388;54.456;9.752;2023-04-24T01:31:06;7.20;;;6.50;;
22441;SDS011;11388;54.456;9.752;2023-04-24T01:33:32;7.20;;;6.50;;
22441;SDS011;11388;54.456;9.752;2023-04-24T01:35:58;8.38;;;6.30;;
22441;SDS011;11388;54.456;9.752;2023-04-24T01:38:24;6.97;;;6.28;;
22441;SDS011;11388;54.456;9.752;2023-04-24T01:40:50;6.88;;;6.18;;
22441;SDS011;11388;54.456;9.752;2023-04-24T01:43:16;6.25;;;5.65;;
22441;SDS011;11388;54.456;9.752;2023-04-24T01:45:43;6.93;;;6.22;;
22441;SDS011;11388;54.456;9.752;2023-04-24T01:48:08;6.30;;;5.70;;
22441;SDS011;11388;54.456;9.752;2023-04-24T01:50:34;6.57;;;5.88;;
22441;SDS011;11388;54.456;9.752;2023-04-24T01:53:00;7.32;;;5.90;;
22441;SDS011;11388;54.456;9.752;2023-04-24T01:55:26;7.85;;;6.10;;
22441;SDS011;11388;54.456;9.752;2023-04-24T01:57:52;8.95;;;5.65;;
22441;SDS011;11388;54.456;9.752;2023-04-24T02:00:20;6.30;;;5.70;;
22441;SDS011;11388;54.456;9.752;2023-04-24T02:05:35;6.43;;;5.82;;
22441;SDS011;11388;54.456;9.752;2023-04-24T02:08:00;7.35;;;5.80;;
22441;SDS011;11388;54.456;9.752;2023-04-24T02:10:26;7.43;;;6.22;;
22441;SDS011;11388;54.456;9.752;2023-04-24T02:12:52;7.38;;;6.53;;
22441;SDS011;11388;54.456;9.752;2023-04-24T02:15:17;7.13;;;6.53;;
22441;SDS011;11388;54.456;9.752;2023-04-24T02:17:43;7.15;;;6.43;;
22441;SDS011;11388;54.456;9.752;2023-04-24T02:20:09;7.03;;;6.32;;
22441;SDS011;11388;54.456;9.752;2023-04-24T02:22:35;7.05;;;6.35;;
22441;SDS011;11388;54.456;9.752;2023-04-24T02:25:01;6.80;;;6.10;;
22441;SDS011;11388;54.456;9.752;2023-04-24T02:27:26;6.80;;;6.20;;
22441;SDS011;11388;54.456;9.752;2023-04-24T02:29:52;7.80;;;6.05;;
22441;SDS011;11388;54.456;9.752;2023-04-24T02:32:18;6.43;;;5.70;;
22441;SDS011;11388;54.456;9.752;2023-04-24T02:34:43;6.50;;;5.90;;
22441;SDS011;11388;54.456;9.752;2023-04-24T02:37:09;5.93;;;5.22;;
22441;SDS011;11388;54.456;9.752;2023-04-24T02:39:35;6.63;;;5.90;;
22441;SDS011;11388;54.456;9.752;2023-04-24T02:42:00;6.28;;;5.20;;
22441;SDS011;11388;54.456;9.752;2023-04-24T02:44:26;5.80;;;5.20;;
22441;SDS011;11388;54.456;9.752;2023-04-24T02:46:52;6.15;;;5.55;;
22441;SDS011;11388;54.456;9.752;2023-04-24T02:49:18;6.50;;;5.60;;
22441;SDS011;11388;54.456;9.752;2023-04-24T02:51:43;6.22;;;5.63;;
22441;SDS011;11388;54.456;9.752;2023-04-24T02:54:09;5.80;;;5.30;;
22441;SDS011;11388;54.456;9.752;2023-04-24T02:56:35;5.57;;;4.97;;
22441;SDS011;11388;54.456;9.752;2023-04-24T02:59:00;6.43;;;5.15;;
22441;SDS011;11388;54.456;9.752;2023-04-24T03:01:26;5.85;;;5.00;;
22441;SDS011;11388;54.456;9.752;2023-04-24T03:03:52;5.50;;;5.00;;
22441;SDS011;11388;54.456;9.752;2023-04-24T03:06:17;5.50;;;5.00;;
22441;SDS011;11388;54.456;9.752;2023-04-24T03:08:43;6.57;;;5.28;;
22441;SDS011;11388;54.456;9.752;2023-04-24T03:11:09;6.55;;;5.18;;
22441;SDS011;11388;54.456;9.752;2023-04-24T03:13:34;6.10;;;5.20;;
22441;SDS011;11388;54.456;9.752;2023-04-24T03:16:00;6.13;;;5.07;;
22441;SDS011;11388;54.456;9.752;2023-04-24T03:18:26;6.13;;;4.75;;
22441;SDS011;11388;54.456;9.752;2023-04-24T03:20:52;5.63;;;5.00;;
22441;SDS011;11388;54.456;9.752;2023-04-24T03:23:17;5.25;;;4.75;;
22441;SDS011;11388;54.456;9.752;2023-04-24T03:25:43;5.47;;;4.93;;
22441;SDS011;11388;54.456;9.752;2023-04-24T03:28:09;5.53;;;4.95;;
22441;SDS011;11388;54.456;9.752;2023-04-24T03:30:34;5.28;;;4.78;;
22441;SDS011;11388;54.456;9.752;2023-04-24T03:33:00;5.15;;;4.65;;
22441;SDS011;11388;54.456;9.752;2023-04-24T03:35:26;5.72;;;4.72;;
22441;SDS011;11388;54.456;9.752;2023-04-24T03:37:51;5.70;;;4.78;;
22441;SDS011;11388;54.456;9.752;2023-04-24T03:40:17;5.78;;;4.80;;
22441;SDS011;11388;54.456;9.752;2023-04-24T03:42:43;5.60;;;5.10;;
22441;SDS011;11388;54.456;9.752;2023-04-24T03:45:09;4.82;;;4.32;;
22441;SDS011;11388;54.456;9.752;2023-04-24T03:47:35;6.78;;;4.50;;
22441;SDS011;11388;54.456;9.752;2023-04-24T03:50:00;4.60;;;4.20;;
22441;SDS011;11388;54.456;9.752;2023-04-24T03:52:26;5.88;;;3.97;;
22441;SDS011;11388;54.456;9.752;2023-04-24T03:54:52;4.47;;;4.07;;
22441;SDS011;11388;54.456;9.752;2023-04-24T03:57:18;4.75;;;4.10;;
22441;SDS011;11388;54.456;9.752;2023-04-24T03:59:43;4.43;;;3.70;;
22441;SDS011;11388;54.456;9.752;2023-04-24T04:02:09;4.85;;;3.70;;
22441;SDS011;11388;54.456;9.752;2023-04-24T04:04:35;3.95;;;3.28;;
22441;SDS011;11388;54.456;9.752;2023-04-24T04:07:00;3.40;;;3.10;;
22441;SDS011;11388;54.456;9.752;2023-04-24T04:09:27;3.40;;;3.10;;
22441;SDS011;11388;54.456;9.752;2023-04-24T04:11:56;3.38;;;3.05;;
22441;SDS011;11388;54.456;9.752;2023-04-24T04:14:22;4.95;;;3.50;;
22441;SDS011;11388;54.456;9.752;2023-04-24T04:16:48;3.92;;;2.92;;
22441;SDS011;11388;54.456;9.752;2023-04-24T04:19:14;3.30;;;3.00;;
22441;SDS011;11388;54.456;9.752;2023-04-24T04:21:40;3.35;;;2.90;;
22441;SDS011;11388;54.456;9.752;2023-04-24T04:24:05;3.25;;;2.90;;
22441;SDS011;11388;54.456;9.752;2023-04-24T04:26:32;3.22;;;2.50;;
22441;SDS011;11388;54.456;9.752;2023-04-24T04:28:58;3.13;;;2.55;;
22441;SDS011;11388;54.456;9.752;2023-04-24T04:31:25;3.15;;;2.80;;
22441;SDS011;11388;54.456;9.752;2023-04-24T04:33:51;2.92;;;2.67;;
22441;SDS011;11388;54.456;9.752;2023-04-24T04:36:17;3.42;;;2.60;;
22441;SDS011;11388;54.456;9.752;2023-04-24T04:38:42;3.70;;;2.90;;
22441;SDS011;11388;54.456;9.752;2023-04-24T04:41:09;3.58;;;2.67;;
22441;SDS011;11388;54.456;9.752;2023-04-24T04:43:35;4.10;;;2.72;;
22441;SDS011;11388;54.456;9.752;2023-04-24T04:46:01;4.18;;;3.30;;
22441;SDS011;11388;54.456;9.752;2023-04-24T04:48:28;3.83;;;3.35;;
22441;SDS011;11388;54.456;9.752;2023-04-24T04:50:56;3.75;;;3.10;;
22441;SDS011;11388;54.456;9.752;2023-04-24T04:53:22;4.50;;;3.35;;
22441;SDS011;11388;54.456;9.752;2023-04-24T04:55:48;4.28;;;2.95;;
22441;SDS011;11388;54.456;9.752;2023-04-24T04:58:13;3.25;;;2.88;;
22441;SDS011;11388;54.456;9.752;2023-04-24T05:00:39;3.20;;;2.90;;
22441;SDS011;11388;54.456;9.752;2023-04-24T05:03:06;3.10;;;2.80;;
22441;SDS011;11388;54.456;9.752;2023-04-24T05:05:32;3.95;;;3.45;;
22441;SDS011;11388;54.456;9.752;2023-04-24T05:07:58;4.05;;;3.50;;
22441;SDS011;11388;54.456;9.752;2023-04-24T05:10:23;3.60;;;3.30;;
22441;SDS011;11388;54.456;9.752;2023-04-24T05:12:49;4.80;;;3.60;;
22441;SDS011;11388;54.456;9.752;2023-04-24T05:15:15;3.55;;;3.25;;
22441;SDS011;11388;54.456;9.752;2023-04-24T05:17:41;3.60;;;3.30;;
22441;SDS011;11388;54.456;9.752;2023-04-24T05:20:06;4.15;;;3.45;;
22441;SDS011;11388;54.456;9.752;2023-04-24T05:22:32;3.58;;;3.20;;
22441;SDS011;11388;54.456;9.752;2023-04-24T05:24:58;3.42;;;3.10;;
22441;SDS011;11388;54.456;9.752;2023-04-24T05:27:24;3.20;;;2.90;;
22441;SDS011;11388;54.456;9.752;2023-04-24T05:29:50;3.22;;;2.78;;
22441;SDS011;11388;54.456;9.752;2023-04-24T05:32:16;3.20;;;2.90;;
22441;SDS011;11388;54.456;9.752;2023-04-24T05:34:41;4.22;;;2.75;;
22441;SDS011;11388;54.456;9.752;2023-04-24T05:37:07;3.10;;;2.70;;
22441;SDS011;11388;54.456;9.752;2023-04-24T05:39:34;4.13;;;2.50;;
22441;SDS011;11388;54.456;9.752;2023-04-24T05:42:01;2.80;;;2.50;;
22441;SDS011;11388;54.456;9.752;2023-04-24T05:44:29;2.60;;;2.40;;
22441;SDS011;11388;54.456;9.752;2023-04-24T05:46:55;2.97;;;2.60;;
22441;SDS011;11388;54.456;9.752;2023-04-24T05:49:21;2.80;;;2.40;;
22441;SDS011;11388;54.456;9.752;2023-04-24T05:51:47;3.05;;;2.75;;
22441;SDS011;11388;54.456;9.752;2023-04-24T05:54:13;3.25;;;2.45;;
22441;SDS011;11388;54.456;9.752;2023-04-24T05:56:39;3.13;;;2.78;;
22441;SDS011;11388;54.456;9.752;2023-04-24T05:59:05;3.20;;;2.80;;
22441;SDS011;11388;54.456;9.752;2023-04-24T06:01:32;3.42;;;2.90;;
22441;SDS011;11388;54.456;9.752;2023-04-24T06:03:58;3.30;;;2.88;;
22441;SDS011;11388;54.456;9.752;2023-04-24T06:06:24;3.38;;;3.08;;
22441;SDS011;11388;54.456;9.752;2023-04-24T06:08:50;3.35;;;3.05;;
22441;SDS011;11388;54.456;9.752;2023-04-24T06:11:16;3.50;;;3.20;;
22441;SDS011;11388;54.456;9.752;2023-04-24T06:13:42;3.47;;;3.00;;
22441;SDS011;11388;54.456;9.752;2023-04-24T06:16:08;3.80;;;3.50;;
22441;SDS011;11388;54.456;9.752;2023-04-24T06:18:34;3.67;;;3.30;;
22441;SDS011;11388;54.456;9.752;2023-04-24T06:20:59;3.60;;;3.30;;
22441;SDS011;11388;54.456;9.752;2023-04-24T06:23:25;3.55;;;3.25;;
22441;SDS011;11388;54.456;9.752;2023-04-24T06:25:51;4.95;;;3.55;;
22441;SDS011;11388;54.456;9.752;2023-04-24T06:28:17;3.63;;;3.20;;
22441;SDS011;11388;54.456;9.752;2023-04-24T06:30:42;3.60;;;3.30;;
22441;SDS011;11388;54.456;9.752;2023-04-24T06:33:08;5.43;;;3.28;;
22441;SDS011;11388;54.456;9.752;2023-04-24T06:35:35;4.28;;;3.28;;
22441;SDS011;11388;54.456;9.752;2023-04-24T06:38:02;3.80;;;3.50;;
22441;SDS011;11388;54.456;9.752;2023-04-24T06:40:28;3.85;;;3.50;;
22441;SDS011;11388;54.456;9.752;2023-04-24T06:42:54;4.43;;;3.42;;
22441;SDS011;11388;54.456;9.752;2023-04-24T06:45:20;3.50;;;3.20;;
22441;SDS011;11388;54.456;9.752;2023-04-24T06:47:46;4.32;;;3.58;;
22441;SDS011;11388;54.456;9.752;2023-04-24T06:50:12;3.70;;;3.38;;
22441;SDS011;11388;54.456;9.752;2023-04-24T06:52:37;3.60;;;3.30;;
22441;SDS011;11388;54.456;9.752;2023-04-24T06:55:03;3.97;;;3.30;;
22441;SDS011;11388;54.456;9.752;2023-04-24T06:57:30;4.65;;;3.58;;
22441;SDS011;11388;54.456;9.752;2023-04-24T06:59:56;3.65;;;3.20;;
22441;SDS011;11388;54.456;9.752;2023-04-24T07:02:22;3.58;;;3.13;;
22441;SDS011;11388;54.456;9.752;2023-04-24T07:04:47;4.25;;;3.13;;
22441;SDS011;11388;54.456;9.752;2023-04-24T07:07:13;3.25;;;2.95;;
22441;SDS011;11388;54.456;9.752;2023-04-24T07:09:39;3.03;;;2.42;;
22441;SDS011;11388;54.456;9.752;2023-04-24T07:12:09;2.50;;;2.30;;
22441;SDS011;11388;54.456;9.752;2023-04-24T07:14:39;4.22;;;2.55;;
22441;SDS011;11388;54.456;9.752;2023-04-24T07:17:05;2.90;;;2.50;;
22441;SDS011;11388;54.456;9.752;2023-04-24T07:19:31;4.00;;;2.40;;
22441;SDS011;11388;54.456;9.752;2023-04-24T07:21:59;3.55;;;2.88;;
22441;SDS011;11388;54.456;9.752;2023-04-24T07:24:25;4.22;;;2.90;;
22441;SDS011;11388;54.456;9.752;2023-04-24T07:26:51;3.00;;;2.70;;
22441;SDS011;11388;54.456;9.752;2023-04-24T07:29:17;3.67;;;2.72;;
22441;SDS011;11388;54.456;9.752;2023-04-24T07:31:43;3.45;;;2.85;;
22441;SDS011;11388;54.456;9.752;2023-04-24T07:34:09;4.22;;;2.65;;
22441;SDS011;11388;54.456;9.752;2023-04-24T07:36:35;3.55;;;2.83;;
22441;SDS011;11388;54.456;9.752;2023-04-24T07:39:03;3.90;;;3.00;;
22441;SDS011;11388;54.456;9.752;2023-04-24T07:41:29;3.40;;;3.08;;
22441;SDS011;11388;54.456;9.752;2023-04-24T07:43:55;3.30;;;2.95;;
22441;SDS011;11388;54.456;9.752;2023-04-24T07:46:20;4.00;;;3.30;;
22441;SDS011;11388;54.456;9.752;2023-04-24T07:48:46;4.32;;;3.10;;
22441;SDS011;11388;54.456;9.752;2023-04-24T07:51:13;3.75;;;3.13;;
22441;SDS011;11388;54.456;9.752;2023-04-24T07:53:40;3.10;;;2.78;;
22441;SDS011;11388;54.456;9.752;2023-04-24T07:56:06;3.55;;;3.25;;
22441;SDS011;11388;54.456;9.752;2023-04-24T07:58:32;3.22;;;2.92;;
22441;SDS011;11388;54.456;9.752;2023-04-24T08:00:57;3.25;;;2.85;;
22441;SDS011;11388;54.456;9.752;2023-04-24T08:03:23;3.30;;;2.75;;
22441;SDS011;11388;54.456;9.752;2023-04-24T08:05:49;3.10;;;2.80;;
22441;SDS011;11388;54.456;9.752;2023-04-24T08:08:17;3.40;;;3.10;;
22441;SDS011;11388;54.456;9.752;2023-04-24T08:10:45;4.07;;;3.30;;
22441;SDS011;11388;54.456;9.752;2023-04-24T08:13:10;3.25;;;2.95;;
22441;SDS011;11388;54.456;9.752;2023-04-24T08:15:36;5.22;;;3.30;;
22441;SDS011;11388;54.456;9.752;2023-04-24T08:18:02;5.07;;;3.53;;
22441;SDS011;11388;54.456;9.752;2023-04-24T08:20:28;3.65;;;3.33;;
22441;SDS011;11388;54.456;9.752;2023-04-24T08:22:53;5.10;;;3.58;;
22441;SDS011;11388;54.456;9.752;2023-04-24T08:25:20;3.90;;;3.50;;
22441;SDS011;11388;54.456;9.752;2023-04-24T08:27:48;3.78;;;3.38;;
22441;SDS011;11388;54.456;9.752;2023-04-24T08:30:13;3.80;;;3.38;;
22441;SDS011;11388;54.456;9.752;2023-04-24T08:32:39;3.70;;;3.10;;
22441;SDS011;11388;54.456;9.752;2023-04-24T08:35:05;3.80;;;3.20;;
22441;SDS011;11388;54.456;9.752;2023-04-24T08:37:33;4.22;;;3.45;;
22441;SDS011;11388;54.456;9.752;2023-04-24T08:39:59;3.55;;;3.25;;
22441;SDS011;11388;54.456;9.752;2023-04-24T08:42:26;4.70;;;3.28;;
22441;SDS011;11388;54.456;9.752;2023-04-24T08:44:54;5.75;;;3.15;;
22441;SDS011;11388;54.456;9.752;2023-04-24T08:47:20;4.03;;;3.10;;
22441;SDS011;11388;54.456;9.752;2023-04-24T08:49:47;3.47;;;3.17;;
22441;SDS011;11388;54.456;9.752;2023-04-24T08:52:14;3.55;;;3.10;;
22441;SDS011;11388;54.456;9.752;2023-04-24T08:54:41;4.13;;;3.30;;
22441;SDS011;11388;54.456;9.752;2023-04-24T08:57:08;4.30;;;3.50;;
22441;SDS011;11388;54.456;9.752;2023-04-24T08:59:36;3.45;;;3.15;;
22441;SDS011;11388;54.456;9.752;2023-04-24T09:02:03;4.20;;;3.80;;
22441;SDS011;11388;54.456;9.752;2023-04-24T09:04:29;3.80;;;3.42;;
22441;SDS011;11388;54.456;9.752;2023-04-24T09:06:57;4.50;;;3.60;;
22441;SDS011;11388;54.456;9.752;2023-04-24T09:09:24;5.13;;;3.70;;
22441;SDS011;11388;54.456;9.752;2023-04-24T09:11:51;3.97;;;3.30;;
22441;SDS011;11388;54.456;9.752;2023-04-24T09:14:19;3.20;;;2.90;;
22441;SDS011;11388;54.456;9.752;2023-04-24T09:16:46;3.55;;;2.97;;
22441;SDS011;11388;54.456;9.752;2023-04-24T09:19:12;4.63;;;3.10;;
22441;SDS011;11388;54.456;9.752;2023-04-24T09:21:37;4.38;;;3.10;;
22441;SDS011;11388;54.456;9.752;2023-04-24T09:24:07;3.58;;;3.10;;
22441;SDS011;11388;54.456;9.752;2023-04-24T09:26:47;4.60;;;2.90;;
22441;SDS011;11388;54.456;9.752;2023-04-24T09:29:17;3.28;;;2.97;;
22441;SDS011;11388;54.456;9.752;2023-04-24T09:31:44;3.33;;;2.85;;
22441;SDS011;11388;54.456;9.752;2023-04-24T09:34:10;3.97;;;3.08;;
22441;SDS011;11388;54.456;9.752;2023-04-24T09:36:41;4.75;;;3.15;;
22441;SDS011;11388;54.456;9.752;2023-04-24T09:39:08;4.05;;;2.90;;
22441;SDS011;11388;54.456;9.752;2023-04-24T09:44:15;3.20;;;2.90;;
22441;SDS011;11388;54.456;9.752;2023-04-24T09:46:45;3.85;;;3.10;;
22441;SDS011;11388;54.456;9.752;2023-04-24T09:49:15;3.63;;;3.05;;
22441;SDS011;11388;54.456;9.752;2023-04-24T09:51:45;4.07;;;3.17;;
22441;SDS011;11388;54.456;9.752;2023-04-24T09:54:14;4.15;;;3.40;;
22441;SDS011;11388;54.456;9.752;2023-04-24T09:56:42;3.85;;;3.10;;
22441;SDS011;11388;54.456;9.752;2023-04-24T09:59:10;5.50;;;3.50;;
22441;SDS011;11388;54.456;9.752;2023-04-24T10:01:36;4.65;;;3.38;;
22441;SDS011;11388;54.456;9.752;2023-04-24T10:04:03;4.32;;;3.67;;
22441;SDS011;11388;54.456;9.752;2023-04-24T10:06:31;4.07;;;3.67;;
22441;SDS011;11388;54.456;9.752;2023-04-24T10:09:00;4.10;;;3.53;;
22441;SDS011;11388;54.456;9.752;2023-04-24T10:11:30;7.13;;;4.22;;
22441;SDS011;11388;54.456;9.752;2023-04-24T10:13:56;5.07;;;4.57;;
22441;SDS011;11388;54.456;9.752;2023-04-24T10:16:22;5.72;;;4.88;;
22441;SDS011;11388;54.456;9.752;2023-04-24T10:18:49;6.20;;;5.20;;
22441;SDS011;11388;54.456;9.752;2023-04-24T10:21:18;5.65;;;4.80;;
22441;SDS011;11388;54.456;9.752;2023-04-24T10:23:48;5.57;;;5.05;;
22441;SDS011;11388;54.456;9.752;2023-04-24T10:26:16;5.53;;;5.03;;
22441;SDS011;11388;54.456;9.752;2023-04-24T10:28:46;5.53;;;4.82;;
22441;SDS011;11388;54.456;9.752;2023-04-24T10:31:12;5.85;;;5.20;;
22441;SDS011;11388;54.456;9.752;2023-04-24T10:33:42;6.07;;;5.40;;
22441;SDS011;11388;54.456;9.752;2023-04-24T10:36:11;6.07;;;4.63;;
22441;SDS011;11388;54.456;9.752;2023-04-24T10:38:39;6.00;;;5.40;;
22441;SDS011;11388;54.456;9.752;2023-04-24T10:41:11;5.35;;;4.82;;
22441;SDS011;11388;54.456;9.752;2023-04-24T10:46:53;7.10;;;4.97;;
22441;SDS011;11388;54.456;9.752;2023-04-24T10:49:30;5.80;;;4.70;;
22441;SDS011;11388;54.456;9.752;2023-04-24T10:52:00;5.50;;;5.00;;
22441;SDS011;11388;54.456;9.752;2023-04-24T10:54:28;5.43;;;4.90;;
22441;SDS011;11388;54.456;9.752;2023-04-24T10:59:48;5.03;;;4.53;;
22441;SDS011;11388;54.456;9.752;2023-04-24T11:02:15;5.00;;;4.50;;
22441;SDS011;11388;54.456;9.752;2023-04-24T11:04:42;5.18;;;4.68;;
22441;SDS011;11388;54.456;9.752;2023-04-24T11:07:09;5.97;;;4.63;;
22441;SDS011;11388;54.456;9.752;2023-04-24T11:09:35;5.03;;;4.30;;
22441;SDS011;11388;54.456;9.752;2023-04-24T11:12:05;5.13;;;4.30;;
22441;SDS011;11388;54.456;9.752;2023-04-24T11:17:31;6.13;;;4.15;;
22441;SDS011;11388;54.456;9.752;2023-04-24T11:20:06;4.57;;;4.18;;
22441;SDS011;11388;54.456;9.752;2023-04-24T11:22:34;4.95;;;4.45;;
22441;SDS011;11388;54.456;9.752;2023-04-24T11:25:02;4.95;;;4.45;;
22441;SDS011;11388;54.456;9.752;2023-04-24T11:27:32;6.00;;;4.85;;
22441;SDS011;11388;54.456;9.752;2023-04-24T11:30:04;5.82;;;4.60;;
22441;SDS011;11388;54.456;9.752;2023-04-24T11:32:38;5.50;;;5.00;;
22441;SDS011;11388;54.456;9.752;2023-04-24T11:37:50;5.88;;;5.22;;
22441;SDS011;11388;54.456;9.752;2023-04-24T11:40:17;5.78;;;4.88;;
22441;SDS011;11388;54.456;9.752;2023-04-24T11:42:46;5.38;;;4.88;;
22441;SDS011;11388;54.456;9.752;2023-04-24T11:45:16;6.07;;;5.05;;
22441;SDS011;11388;54.456;9.752;2023-04-24T11:47:48;5.85;;;5.03;;
22441;SDS011;11388;54.456;9.752;2023-04-24T11:50:14;5.43;;;4.93;;
22441;SDS011;11388;54.456;9.752;2023-04-24T11:52:42;5.80;;;5.20;;
22441;SDS011;11388;54.456;9.752;2023-04-24T11:57:50;5.47;;;4.93;;
22441;SDS011;11388;54.456;9.752;2023-04-24T12:00:28;5.75;;;4.97;;
22441;SDS011;11388;54.456;9.752;2023-04-24T12:05:34;5.30;;;4.80;;
22441;SDS011;11388;54.456;9.752;2023-04-24T12:08:00;5.50;;;5.00;;
22441;SDS011;11388;54.456;9.752;2023-04-24T12:10:27;5.60;;;5.10;;
22441;SDS011;11388;54.456;9.752;2023-04-24T12:12:55;7.00;;;4.80;;
22441;SDS011;11388;54.456;9.752;2023-04-24T12:15:22;5.78;;;5.20;;
22441;SDS011;11388;54.456;9.752;2023-04-24T12:17:50;5.63;;;5.13;;
22441;SDS011;11388;54.456;9.752;2023-04-24T12:20:17;6.10;;;5.50;;
22441;SDS011;11388;54.456;9.752;2023-04-24T12:26:10;6.70;;;6.05;;
22441;SDS011;11388;54.456;9.752;2023-04-24T12:28:36;6.47;;;5.88;;
22441;SDS011;11388;54.456;9.752;2023-04-24T12:31:03;7.50;;;6.20;;
22441;SDS011;11388;54.456;9.752;2023-04-24T12:33:34;7.10;;;5.90;;
22441;SDS011;11388;54.456;9.752;2023-04-24T12:36:00;6.80;;;6.10;;
22441;SDS011;11388;54.456;9.752;2023-04-24T12:38:27;6.93;;;5.85;;
22441;SDS011;11388;54.456;9.752;2023-04-24T12:41:02;7.15;;;5.88;;
22441;SDS011;11388;54.456;9.752;2023-04-24T12:43:29;6.80;;;5.88;;
22441;SDS011;11388;54.456;9.752;2023-04-24T12:45:55;6.45;;;5.72;;
22441;SDS011;11388;54.456;9.752;2023-04-24T12:48:20;6.07;;;5.47;;
22441;SDS011;11388;54.456;9.752;2023-04-24T12:50:47;6.20;;;5.55;;
22441;SDS011;11388;54.456;9.752;2023-04-24T12:53:13;6.43;;;5.63;;
22441;SDS011;11388;54.456;9.752;2023-04-24T12:55:39;6.32;;;5.72;;
22441;SDS011;11388;54.456;9.752;2023-04-24T12:58:05;7.65;;;5.85;;
22441;SDS011;11388;54.456;9.752;2023-04-24T13:00:31;8.50;;;5.78;;
22441;SDS011;11388;54.456;9.752;2023-04-24T13:02:56;6.45;;;5.35;;
22441;SDS011;11388;54.456;9.752;2023-04-24T13:05:22;6.13;;;5.43;;
22441;SDS011;11388;54.456;9.752;2023-04-24T13:07:48;6.07;;;5.45;;
22441;SDS011;11388;54.456;9.752;2023-04-24T13:10:13;5.90;;;5.30;;
22441;SDS011;11388;54.456;9.752;2023-04-24T13:12:39;6.65;;;5.63;;
22441;SDS011;11388;54.456;9.752;2023-04-24T13:15:10;6.03;;;5.38;;
22441;SDS011;11388;54.456;9.752;2023-04-24T13:17:36;6.25;;;5.65;;
22441;SDS011;11388;54.456;9.752;2023-04-24T13:20:02;5.45;;;4.13;;
22441;SDS011;11388;54.456;9.752;2023-04-24T13:22:28;4.30;;;3.90;;
22441;SDS011;11388;54.456;9.752;2023-04-24T13:24:53;3.58;;;3.28;;
22441;SDS011;11388;54.456;9.752;2023-04-24T13:27:19;3.80;;;3.40;;
22441;SDS011;11388;54.456;9.752;2023-04-24T13:29:45;4.10;;;3.70;;
22441;SDS011;11388;54.456;9.752;2023-04-24T13:32:11;4.32;;;3.92;;
22441;SDS011;11388;54.456;9.752;2023-04-24T13:34:37;4.40;;;4.00;;
22441;SDS011;11388;54.456;9.752;2023-04-24T13:37:03;5.05;;;4.30;;
22441;SDS011;11388;54.456;9.752;2023-04-24T13:39:29;4.10;;;3.70;;
22441;SDS011;11388;54.456;9.752;2023-04-24T13:41:56;5.50;;;4.00;;
22441;SDS011;11388;54.456;9.752;2023-04-24T13:44:22;3.63;;;3.30;;
22441;SDS011;11388;54.456;9.752;2023-04-24T13:46:49;4.07;;;2.90;;
22441;SDS011;11388;54.456;9.752;2023-04-24T13:49:19;3.35;;;2.90;;
22441;SDS011;11388;54.456;9.752;2023-04-24T13:51:45;3.75;;;3.35;;
22441;SDS011;11388;54.456;9.752;2023-04-24T14:01:06;4.65;;;3.70;;
22441;SDS011;11388;54.456;9.752;2023-04-24T14:10:59;3.40;;;3.10;;
22441;SDS011;11388;54.456;9.752;2023-04-24T14:13:25;3.90;;;3.28;;
22441;SDS011;11388;54.456;9.752;2023-04-24T14:15:51;4.10;;;3.70;;
22441;SDS011;11388;54.456;9.752;2023-04-24T14:18:17;4.40;;;4.00;;
22441;SDS011;11388;54.456;9.752;2023-04-24T14:20:43;4.40;;;4.00;;
22441;SDS011;11388;54.456;9.752;2023-04-24T14:23:09;3.75;;;3.40;;
22441;SDS011;11388;54.456;9.752;2023-04-24T14:25:35;3.70;;;3.30;;
22441;SDS011;11388;54.456;9.752;2023-04-24T14:28:01;3.10;;;2.80;;
22441;SDS011;11388;54.456;9.752;2023-04-24T14:30:26;3.40;;;3.10;;
22441;SDS011;11388;54.456;9.752;2023-04-24T14:32:52;3.40;;;3.05;;
22441;SDS011;11388;54.456;9.752;2023-04-24T14:35:18;3.63;;;2.80;;
22441;SDS011;11388;54.456;9.752;2023-04-24T14:37:44;3.35;;;2.70;;
22441;SDS011;11388;54.456;9.752;2023-04-24T14:40:10;2.80;;;2.50;;
22441;SDS011;11388;54.456;9.752;2023-04-24T14:42:36;2.35;;;2.10;;
22441;SDS011;11388;54.456;9.752;2023-04-24T14:45:05;4.60;;;2.30;;
22441;SDS011;11388;54.456;9.752;2023-04-24T14:47:32;2.92;;;2.25;;
22441;SDS011;11388;54.456;9.752;2023-04-24T14:49:58;4.63;;;2.40;;
22441;SDS011;11388;54.456;9.752;2023-04-24T14:52:24;2.13;;;1.90;;
22441;SDS011;11388;54.456;9.752;2023-04-24T14:54:50;1.90;;;1.70;;
22441;SDS011;11388;54.456;9.752;2023-04-24T14:57:15;2.63;;;1.80;;
22441;SDS011;11388;54.456;9.752;2023-04-24T14:59:41;2.03;;;1.70;;
22441;SDS011;11388;54.456;9.752;2023-04-24T15:02:07;2.08;;;1.88;;
22441;SDS011;11388;54.456;9.752;2023-04-24T15:04:33;1.70;;;1.58;;
22441;SDS011;11388;54.456;9.752;2023-04-24T15:06:59;2.10;;;1.70;;
22441;SDS011;11388;54.456;9.752;2023-04-24T15:09:25;1.80;;;1.63;;
22441;SDS011;11388;54.456;9.752;2023-04-24T15:11:52;2.10;;;1.80;;
22441;SDS011;11388;54.456;9.752;2023-04-24T15:14:18;2.10;;;1.80;;
22441;SDS011;11388;54.456;9.752;2023-04-24T15:16:44;2.00;;;1.75;;
22441;SDS011;11388;54.456;9.752;2023-04-24T15:19:10;2.33;;;2.13;;
22441;SDS011;11388;54.456;9.752;2023-04-24T15:21:36;2.40;;;2.15;;
22441;SDS011;11388;54.456;9.752;2023-04-24T15:24:02;4.35;;;2.80;;